createdAt,value
2019-04-13T17:10:06.395Z,10.48
2019-04-13T17:11:04.838Z,10.51
2019-04-13T17:12:39.111Z,10.36
2019-04-13T17:13:05.397Z,10.39
2019-04-13T17:14:05.846Z,10.28
2019-04-13T17:15:04.896Z,10.39
2019-04-13T17:16:04.879Z,10.36
2019-04-13T17:17:04.421Z,10.39
2019-04-13T17:18:05.693Z,10.39
2019-04-13T17:19:05.453Z,10.28
2019-04-13T17:20:07.457Z,10.1
2019-04-13T17:21:06.740Z,10.07
2019-04-13T17:22:05.280Z,10.24
2019-04-13T17:23:04.809Z,10.17
2019-04-13T17:24:04.895Z,10.2
2019-04-13T17:25:05.588Z,10.1
2019-04-13T17:26:08.545Z,10.02
2019-04-13T17:27:05.087Z,10.09
2019-04-13T17:28:20.448Z,10.1
2019-04-13T17:29:05.117Z,9.92
2019-04-13T17:30:06.716Z,10.12
2019-04-13T17:31:05.554Z,10.05
2019-04-13T17:32:06.350Z,9.92
2019-04-13T17:33:04.776Z,10.03
2019-04-13T17:34:04.796Z,9.97
2019-04-13T17:35:04.540Z,9.94
2019-04-13T17:36:06.260Z,9.81
2019-04-13T17:37:05.191Z,9.84
2019-04-13T17:38:05.523Z,9.99
2019-04-13T17:39:05.010Z,9.84
2019-04-13T17:40:05.462Z,9.85
2019-04-13T17:41:05.653Z,9.84
2019-04-13T17:42:05.482Z,9.73
2019-04-13T17:43:04.806Z,9.8
2019-04-13T17:44:05.980Z,9.8
2019-04-13T17:45:05.370Z,9.81
2019-04-13T17:46:05.479Z,9.82
2019-04-13T17:47:05.732Z,9.84
2019-04-13T17:48:05.060Z,9.97
2019-04-13T17:49:04.963Z,9.92
2019-04-13T17:50:05.718Z,9.95
2019-04-13T17:51:03.940Z,10
2019-04-13T17:52:04.807Z,9.92
2019-04-13T17:53:05.696Z,9.9
2019-04-13T17:54:05.983Z,9.82
2019-04-13T17:55:06.766Z,9.81
2019-04-13T17:56:04.958Z,9.92
2019-04-13T17:57:05.627Z,9.95
2019-04-13T17:58:06.736Z,9.97
2019-04-13T17:59:05.471Z,9.94
2019-04-13T18:00:05.929Z,9.81
2019-04-13T18:01:06.048Z,9.84
2019-04-13T18:02:05.259Z,9.74
2019-04-13T18:03:05.650Z,9.82
2019-04-13T18:04:06.584Z,9.82
2019-04-13T18:05:06.564Z,9.81
2019-04-13T18:06:06.492Z,9.63
2019-04-13T18:07:05.178Z,9.48
2019-04-13T18:08:05.880Z,9.52
2019-04-13T18:09:08.482Z,9.51
2019-04-13T18:10:05.155Z,9.52
2019-04-13T18:11:05.249Z,9.48
2019-04-13T18:12:05.410Z,9.49
2019-04-13T18:13:07.665Z,9.52
2019-04-13T18:14:08.870Z,9.48
2019-04-13T18:15:05.319Z,9.47
2019-04-13T18:16:06.093Z,9.45
2019-04-13T18:17:05.790Z,9.39
2019-04-13T18:18:06.024Z,9.51
2019-04-13T18:19:05.379Z,9.49
2019-04-13T18:20:07.074Z,9.37
2019-04-13T18:21:06.271Z,9.55
2019-04-13T18:22:06.319Z,9.48
2019-04-13T18:23:05.200Z,9.62
2019-04-13T18:24:06.327Z,9.55
2019-04-13T18:25:05.624Z,9.62
2019-04-13T18:26:08.376Z,9.55
2019-04-13T18:27:06.615Z,9.64
2019-04-13T18:28:06.365Z,9.56
2019-04-13T18:29:05.256Z,9.54
2019-04-13T18:30:32.673Z,9.47
2019-04-13T18:31:06.912Z,9.3
2019-04-13T18:32:05.199Z,9.49
2019-04-13T18:33:05.021Z,9.29
2019-04-13T18:34:06.113Z,9.42
2019-04-13T18:35:06.244Z,9.42
2019-04-13T18:36:05.551Z,9.3
2019-04-13T18:37:05.713Z,9.15
2019-04-13T18:38:05.843Z,9.05
2019-04-13T18:39:06.934Z,9.03
2019-04-13T18:40:07.179Z,8.95
2019-04-13T18:41:07.940Z,8.95
2019-04-13T18:42:07.370Z,8.97
2019-04-13T18:43:27.589Z,8.99
2019-04-13T18:44:05.575Z,8.99
2019-04-13T18:45:07.655Z,9.03
2019-04-13T18:46:09.324Z,9
2019-04-13T18:47:05.613Z,8.86
2019-04-13T18:48:05.330Z,8.95
2019-04-13T18:49:05.601Z,8.9
2019-04-13T18:50:05.995Z,8.9
2019-04-13T18:51:04.345Z,8.92
2019-04-13T18:52:05.614Z,8.99
2019-04-13T18:53:10.588Z,9.08
2019-04-13T18:54:05.813Z,9.11
2019-04-13T18:55:06.448Z,8.79
2019-04-13T18:56:06.110Z,8.72
2019-04-13T18:57:05.399Z,8.78
2019-04-13T18:58:09.280Z,8.84
2019-04-13T18:59:05.199Z,8.81
2019-04-13T19:00:07.144Z,8.82
2019-04-13T19:01:05.119Z,8.72
2019-04-13T19:02:06.758Z,8.75
2019-04-13T19:03:05.686Z,8.71
2019-04-13T19:04:04.614Z,8.72
2019-04-13T19:05:04.697Z,8.75
2019-04-13T19:06:04.627Z,8.69
2019-04-13T19:07:04.666Z,8.5
2019-04-13T19:08:04.597Z,8.52
2019-04-13T19:09:04.530Z,8.44
2019-04-13T19:10:04.780Z,8.5
2019-04-13T19:11:04.663Z,8.57
2019-04-13T19:12:04.414Z,8.59
2019-04-13T19:13:10.908Z,8.53
2019-04-13T19:14:04.277Z,8.6
2019-04-13T19:15:04.333Z,8.61
2019-04-13T19:16:04.350Z,8.53
2019-04-13T19:17:04.490Z,8.63
2019-04-13T19:18:04.433Z,8.71
2019-04-13T19:19:04.125Z,8.54
2019-04-13T19:20:04.466Z,8.56
2019-04-13T19:21:04.545Z,8.56
2019-04-13T19:22:04.209Z,8.42
2019-04-13T19:23:04.278Z,8.53
2019-04-13T19:24:06.022Z,8.41
2019-04-13T19:25:04.275Z,8.49
2019-04-13T19:26:04.404Z,8.52
2019-04-13T19:27:04.072Z,8.42
2019-04-13T19:28:04.299Z,8.49
2019-04-13T19:29:04.336Z,8.53
2019-04-13T19:30:04.948Z,8.39
2019-04-13T19:31:04.282Z,8.34
2019-04-13T19:32:04.276Z,8.24
2019-04-13T19:33:04.115Z,8.41
2019-04-13T19:34:04.189Z,8.36
2019-04-13T19:35:04.449Z,8.21
2019-04-13T19:36:04.452Z,8.34
2019-04-13T19:37:04.501Z,8.34
2019-04-13T19:38:04.642Z,8.44
2019-04-13T19:39:04.239Z,8.39
2019-04-13T19:40:04.712Z,8.35
2019-04-13T19:41:04.463Z,8.32
2019-04-13T19:42:04.544Z,8.36
2019-04-13T19:43:15.755Z,8.34
2019-04-13T19:44:04.201Z,8.26
2019-04-13T19:45:07.026Z,8.18
2019-04-13T19:46:04.205Z,8.26
2019-04-13T19:47:04.205Z,8.32
2019-04-13T19:48:04.139Z,8.26
2019-04-13T19:49:04.424Z,8.24
2019-04-13T19:50:04.231Z,8.18
2019-04-13T19:51:04.551Z,8.17
2019-04-13T19:52:04.269Z,8.31
2019-04-13T19:53:04.173Z,8.16
2019-04-13T19:54:04.281Z,8.16
2019-04-13T19:55:04.191Z,8.14
2019-04-13T19:56:04.348Z,8.08
2019-04-13T19:57:04.356Z,8.02
2019-04-13T19:58:04.068Z,8.08
2019-04-13T19:59:04.074Z,7.99
2019-04-13T20:00:04.438Z,7.95
2019-04-13T20:01:06.921Z,7.99
2019-04-13T20:02:04.583Z,8.03
2019-04-13T20:03:04.106Z,8.03
2019-04-13T20:04:04.046Z,7.98
2019-04-13T20:05:04.337Z,7.85
2019-04-13T20:06:18.066Z,7.85
2019-04-13T20:07:04.149Z,7.81
2019-04-13T20:08:04.117Z,7.91
2019-04-13T20:09:04.223Z,7.87
2019-04-13T20:10:05.210Z,7.85
2019-04-13T20:11:04.076Z,7.7
2019-04-13T20:12:05.548Z,7.75
2019-04-13T20:13:06.403Z,7.78
2019-04-13T20:14:17.582Z,7.69
2019-04-13T20:15:05.422Z,7.87
2019-04-13T20:16:04.639Z,7.83
2019-04-13T20:17:06.373Z,7.83
2019-04-13T20:18:04.053Z,7.7
2019-04-13T20:19:04.084Z,7.77
2019-04-13T20:20:06.935Z,7.64
2019-04-13T20:21:04.117Z,7.7
2019-04-13T20:22:04.024Z,7.69
2019-04-13T20:23:04.056Z,7.51
2019-04-13T20:24:04.088Z,7.51
2019-04-13T20:25:05.531Z,7.5
2019-04-13T20:26:05.538Z,7.5
2019-04-13T20:27:06.564Z,7.32
2019-04-13T20:28:05.353Z,7.32
2019-04-13T20:29:05.606Z,7.4
2019-04-13T20:30:06.391Z,7.41
2019-04-13T20:31:05.715Z,7.39
2019-04-13T20:32:04.561Z,7.25
2019-04-13T20:33:05.095Z,7.29
2019-04-13T20:34:04.164Z,7.31
2019-04-13T20:35:06.238Z,7.29
2019-04-13T20:36:21.314Z,7.22
2019-04-13T20:37:05.535Z,7.15
2019-04-13T20:38:05.093Z,7.11
2019-04-13T20:39:05.337Z,7.19
2019-04-13T20:40:05.391Z,7.13
2019-04-13T20:44:36.534Z,7.03
2019-04-13T20:45:34.537Z,7.01
2019-04-13T20:46:36.336Z,7
2019-04-13T20:47:35.655Z,7.01
2019-04-13T20:48:35.382Z,7.11
2019-04-13T20:49:36.770Z,6.97
2019-04-13T20:54:53.902Z,6.87
2019-04-13T20:55:11.006Z,6.97
2019-04-13T20:56:07.574Z,6.96
2019-04-13T20:57:08.195Z,6.96
2019-04-13T20:58:07.229Z,6.9
2019-04-13T20:59:08.250Z,6.92
2019-04-13T21:00:07.438Z,6.8
2019-04-13T21:01:08.206Z,6.82
2019-04-13T21:02:07.566Z,6.89
2019-04-13T21:03:07.889Z,6.89
2019-04-13T21:04:08.516Z,6.8
2019-04-13T21:05:07.725Z,6.86
2019-04-13T21:06:08.598Z,6.75
2019-04-13T21:07:07.371Z,6.75
2019-04-13T21:08:08.298Z,6.85
2019-04-13T21:09:07.287Z,6.77
2019-04-13T21:10:06.252Z,6.89
2019-04-13T21:11:06.134Z,6.85
2019-04-13T21:12:07.644Z,6.86
2019-04-13T21:13:06.148Z,6.78
2019-04-13T21:14:36.408Z,6.77
2019-04-13T21:15:07.540Z,6.8
2019-04-13T21:16:08.257Z,6.9
2019-04-13T21:17:07.095Z,6.72
2019-04-13T21:18:07.810Z,6.67
2019-04-13T21:19:07.209Z,6.75
2019-04-13T21:20:07.614Z,6.8
2019-04-13T21:21:08.404Z,6.75
2019-04-13T21:22:07.224Z,6.62
2019-04-13T21:23:08.104Z,6.6
2019-04-13T21:24:07.221Z,6.57
2019-04-13T21:25:07.583Z,6.52
2019-04-13T21:26:08.632Z,6.54
2019-04-13T21:27:07.371Z,6.6
2019-04-13T21:28:08.273Z,6.38
2019-04-13T21:29:07.318Z,6.17
2019-04-13T21:30:07.841Z,6.2
2019-04-13T21:31:08.507Z,6.17
2019-04-13T21:32:07.679Z,6.25
2019-04-13T21:33:08.242Z,6.22
2019-04-13T21:34:07.331Z,6.15
2019-04-13T21:35:07.811Z,6.15
2019-04-13T21:36:07.345Z,6.19
2019-04-13T21:37:07.321Z,6.15
2019-04-13T21:38:06.905Z,6.12
2019-04-13T21:39:07.426Z,6.19
2019-04-13T21:40:06.941Z,6.25
2019-04-13T21:41:08.600Z,6.22
2019-04-13T21:42:11.370Z,6.16
2019-04-13T21:43:08.318Z,6.12
2019-04-13T21:44:37.397Z,6.25
2019-04-13T21:45:07.929Z,6.28
2019-04-13T21:46:08.655Z,6.2
2019-04-13T21:47:07.336Z,6.22
2019-04-13T21:48:08.945Z,6.22
2019-04-13T21:49:07.474Z,6.29
2019-04-13T21:50:08.663Z,6.32
2019-04-13T21:51:07.257Z,6.29
2019-04-13T21:52:08.298Z,6.25
2019-04-13T21:53:07.448Z,6.25
2019-04-13T21:54:08.179Z,6.28
2019-04-13T21:55:07.319Z,6.22
2019-04-13T21:56:07.684Z,6.29
2019-04-13T21:57:07.513Z,6.36
2019-04-13T22:00:14.501Z,6.1
2019-04-13T22:00:29.078Z,6.1
2019-04-13T22:01:29.708Z,6.13
2019-04-13T22:02:28.820Z,6.26
2019-04-13T22:03:29.171Z,6.19
2019-04-13T22:04:28.282Z,6.1
2019-04-13T22:05:28.874Z,5.98
2019-04-13T22:06:27.630Z,6.12
2019-04-13T22:09:57.137Z,5.97
2019-04-13T22:10:11.474Z,5.91
2019-04-13T22:11:10.338Z,6.02
2019-04-13T22:12:11.077Z,5.88
2019-04-13T22:13:10.413Z,5.95
2019-04-13T22:14:39.090Z,5.99
2019-04-13T22:15:18.666Z,5.97
2019-04-13T22:16:10.698Z,5.91
2019-04-13T22:17:11.627Z,5.98
2019-04-13T22:18:10.342Z,5.94
2019-04-13T22:19:11.342Z,6.01
2019-04-13T22:20:10.672Z,6.02
2019-04-13T22:21:11.081Z,5.88
2019-04-13T22:22:11.829Z,6.01
2019-04-13T22:23:10.719Z,5.92
2019-04-13T22:24:11.265Z,5.98
2019-04-13T22:25:10.253Z,5.99
2019-04-13T22:26:10.871Z,5.95
2019-04-13T22:27:16.229Z,5.87
2019-04-13T22:28:18.312Z,5.65
2019-04-13T22:29:11.260Z,5.77
2019-04-13T22:30:10.704Z,5.83
2019-04-13T22:31:11.295Z,5.8
2019-04-13T22:32:10.350Z,5.8
2019-04-13T22:33:10.886Z,5.79
2019-04-13T22:34:11.611Z,5.65
2019-04-13T22:35:10.634Z,5.65
2019-04-13T22:36:11.362Z,5.62
2019-04-13T22:37:10.396Z,5.7
2019-04-13T22:38:10.842Z,5.7
2019-04-13T22:39:11.591Z,5.74
2019-04-13T22:40:10.412Z,5.62
2019-04-13T22:41:11.088Z,5.51
2019-04-13T22:42:10.451Z,5.67
2019-04-13T22:43:10.941Z,5.7
2019-04-13T22:44:10.396Z,5.69
2019-04-13T22:45:19.141Z,5.73
2019-04-13T22:46:10.669Z,5.7
2019-04-13T22:47:10.388Z,5.74
2019-04-13T22:48:11.526Z,5.73
2019-04-13T22:49:10.737Z,5.62
2019-04-13T22:50:13.296Z,5.62
2019-04-13T22:51:11.814Z,5.67
2019-04-13T22:52:10.618Z,5.55
2019-04-13T22:53:10.438Z,5.59
2019-04-13T22:54:10.491Z,5.55
2019-04-13T22:55:10.549Z,5.64
2019-04-13T22:56:09.966Z,5.69
2019-04-13T22:57:10.482Z,5.67
2019-04-13T22:58:11.537Z,5.72
2019-04-13T22:59:09.983Z,5.67
2019-04-13T23:00:10.456Z,5.7
2019-04-13T23:01:11.315Z,5.72
2019-04-13T23:02:10.764Z,5.67
2019-04-13T23:03:11.134Z,5.72
2019-04-13T23:04:10.616Z,5.67
2019-04-13T23:05:11.135Z,5.8
2019-04-13T23:06:11.683Z,5.84
2019-04-13T23:07:10.736Z,5.8
2019-04-13T23:08:11.657Z,5.67
2019-04-13T23:09:10.597Z,5.61
2019-04-13T23:14:28.629Z,5.76
2019-04-13T23:15:05.925Z,5.67
2019-04-13T23:15:48.883Z,5.72
2019-04-13T23:16:41.958Z,5.74
2019-04-13T23:17:42.402Z,5.74
2019-04-13T23:18:41.448Z,5.79
2019-04-13T23:19:43.520Z,5.79
2019-04-13T23:20:41.697Z,5.76
2019-04-13T23:21:42.377Z,5.72
2019-04-13T23:22:41.596Z,5.58
2019-04-13T23:23:41.935Z,5.62
2019-04-13T23:24:41.688Z,5.72
2019-04-13T23:25:42.431Z,5.64
2019-04-13T23:26:41.472Z,5.7
2019-04-13T23:27:42.117Z,5.67
2019-04-13T23:28:41.040Z,5.59
2019-04-13T23:29:43.222Z,5.65
2019-04-13T23:30:42.126Z,5.62
2019-04-13T23:31:43.209Z,5.52
2019-04-13T23:32:42.260Z,5.58
2019-04-13T23:33:43.077Z,5.47
2019-04-13T23:34:42.128Z,5.41
2019-04-13T23:35:42.750Z,5.46
2019-04-13T23:36:42.145Z,5.55
2019-04-13T23:37:43.062Z,5.58
2019-04-13T23:38:41.997Z,5.64
2019-04-13T23:39:54.125Z,5.58
2019-04-13T23:40:41.960Z,5.37
2019-04-13T23:41:42.801Z,5.56
2019-04-13T23:42:42.267Z,5.52
2019-04-13T23:43:42.869Z,5.58
2019-04-13T23:44:42.046Z,5.52
2019-04-13T23:45:47.089Z,5.55
2019-04-13T23:46:42.151Z,5.56
2019-04-13T23:47:42.440Z,5.59
2019-04-13T23:48:42.164Z,5.56
2019-04-13T23:49:42.789Z,5.51
2019-04-13T23:50:42.385Z,5.47
2019-04-13T23:51:42.412Z,5.55
2019-04-13T23:52:42.152Z,5.51
2019-04-13T23:53:42.235Z,5.49
2019-04-13T23:54:42.147Z,5.43
2019-04-13T23:55:41.996Z,5.46
2019-04-13T23:56:41.958Z,5.43
2019-04-13T23:57:41.922Z,5.36
2019-04-13T23:58:41.563Z,5.41
2019-04-13T23:59:43.280Z,5.44
